createdAt,value
2023-03-20T00:00:44.782Z,13.00
2023-03-20T00:03:17.983Z,13.00
2023-03-20T00:05:52.754Z,13.00
2023-03-20T00:08:24.348Z,13.10
2023-03-20T00:10:56.451Z,13.10
2023-03-20T00:13:30.456Z,13.20
2023-03-20T00:16:03.194Z,13.10
2023-03-20T00:18:35.084Z,13.10
2023-03-20T00:21:27.612Z,13.10
2023-03-20T00:24:02.727Z,13.20
2023-03-20T00:26:39.955Z,13.20
2023-03-20T00:29:20.162Z,13.20
2023-03-20T00:31:51.924Z,13.20
2023-03-20T00:34:27.305Z,13.20
2023-03-20T00:37:19.901Z,13.20
2023-03-20T00:39:52.519Z,13.20
2023-03-20T00:42:25.843Z,13.20
2023-03-20T00:45:09.958Z,13.20
2023-03-20T00:47:45.916Z,13.30
2023-03-20T00:50:43.960Z,13.30
2023-03-20T00:53:36.273Z,13.30
2023-03-20T00:56:11.452Z,13.20
2023-03-20T00:58:43.708Z,13.10
2023-03-20T01:01:19.561Z,13.10
2023-03-20T01:04:17.124Z,13.30
2023-03-20T01:06:51.288Z,13.20
2023-03-20T01:09:25.426Z,13.20
2023-03-20T01:11:58.237Z,13.20
2023-03-20T01:14:31.238Z,13.30
2023-03-20T01:17:03.429Z,13.30
2023-03-20T01:19:37.433Z,13.40
2023-03-20T01:22:11.400Z,13.30
2023-03-20T01:25:06.716Z,13.40
2023-03-20T01:27:38.092Z,13.40
2023-03-20T01:30:23.599Z,13.50
2023-03-20T01:33:00.221Z,13.50
2023-03-20T01:35:33.882Z,13.50
2023-03-20T01:38:25.358Z,13.60
2023-03-20T01:41:26.066Z,13.50
2023-03-20T01:44:18.540Z,13.60
2023-03-20T01:46:52.769Z,13.60
2023-03-20T01:49:24.775Z,13.60
2023-03-20T01:52:00.914Z,13.70
2023-03-20T01:54:41.658Z,13.70
2023-03-20T01:57:42.106Z,13.70
2023-03-20T02:00:18.759Z,13.80
2023-03-20T02:02:57.351Z,13.70
2023-03-20T02:05:56.681Z,13.70
2023-03-20T02:08:37.890Z,13.70
2023-03-20T02:11:29.473Z,13.70
2023-03-20T02:14:05.557Z,13.70
2023-03-20T02:16:59.174Z,13.70
2023-03-20T02:20:13.995Z,13.80
2023-03-20T02:23:13.316Z,13.80
2023-03-20T02:26:06.207Z,13.80
2023-03-20T02:29:01.484Z,13.80
2023-03-20T02:32:20.370Z,13.80
2023-03-20T02:35:20.012Z,13.80
2023-03-20T02:38:26.914Z,13.90
2023-03-20T02:41:25.654Z,13.90
2023-03-20T02:44:37.539Z,13.80
2023-03-20T02:47:23.180Z,13.80
2023-03-20T02:49:57.897Z,13.80
2023-03-20T02:56:02.961Z,13.80
2023-03-20T02:58:49.621Z,13.80
2023-03-20T03:01:26.720Z,13.90
2023-03-20T03:04:03.650Z,13.90
2023-03-20T03:06:42.528Z,13.90
2023-03-20T03:09:33.449Z,13.90
2023-03-20T03:12:18.386Z,14.00
2023-03-20T03:15:15.308Z,14.00
2023-03-20T03:17:53.882Z,14.00
2023-03-20T03:20:51.152Z,14.00
2023-03-20T03:23:50.793Z,14.10
2023-03-20T03:26:30.022Z,14.20
2023-03-20T03:29:06.974Z,14.20
2023-03-20T03:31:41.786Z,14.20
2023-03-20T03:34:19.508Z,14.20
2023-03-20T03:37:21.318Z,14.20
2023-03-20T03:40:22.525Z,14.30
2023-03-20T03:43:00.742Z,14.30
2023-03-20T03:45:41.554Z,14.30
2023-03-20T03:48:25.006Z,14.40
2023-03-20T03:51:04.451Z,14.40
2023-03-20T03:53:53.072Z,14.40
2023-03-20T03:56:36.395Z,14.40
2023-03-20T03:59:15.528Z,14.40
2023-03-20T04:01:50.892Z,14.30
2023-03-20T04:04:27.125Z,14.30
2023-03-20T04:07:20.539Z,14.30
2023-03-20T04:09:53.360Z,14.30
2023-03-20T04:12:44.495Z,14.40
2023-03-20T04:15:20.000Z,14.30
2023-03-20T04:17:52.651Z,14.30
2023-03-20T04:20:26.351Z,14.30
2023-03-20T04:23:01.198Z,14.30
2023-03-20T04:25:55.783Z,14.40
2023-03-20T04:28:29.807Z,14.40
2023-03-20T04:31:41.682Z,14.30
2023-03-20T04:34:40.363Z,14.40
2023-03-20T04:37:33.085Z,14.40
2023-03-20T04:40:11.707Z,14.40
2023-03-20T04:42:47.585Z,14.50
2023-03-20T04:45:39.797Z,14.50
2023-03-20T04:48:14.429Z,14.60
2023-03-20T04:50:52.933Z,14.60
2023-03-20T04:53:40.216Z,14.70
2023-03-20T04:56:37.797Z,14.70
2023-03-20T04:59:24.829Z,14.80
2023-03-20T05:01:57.092Z,14.80
2023-03-20T05:04:34.212Z,14.90
2023-03-20T05:07:06.772Z,14.90
2023-03-20T05:09:49.554Z,14.90
2023-03-20T05:12:42.873Z,14.90
2023-03-20T05:15:44.263Z,14.90
2023-03-20T05:18:30.118Z,14.90
2023-03-20T05:24:36.612Z,15.00
2023-03-20T05:27:37.547Z,15.00
2023-03-20T05:30:09.703Z,15.00
2023-03-20T05:33:01.010Z,15.00
2023-03-20T05:35:33.852Z,15.00
2023-03-20T05:38:34.392Z,15.10
2023-03-20T05:41:31.699Z,15.10
2023-03-20T05:44:55.019Z,15.10
2023-03-20T05:47:53.534Z,15.10
2023-03-20T05:50:47.162Z,15.10
2023-03-20T05:53:31.380Z,15.20
2023-03-20T05:59:51.480Z,15.20
2023-03-20T06:02:41.488Z,15.20
2023-03-20T06:05:37.056Z,15.30
2023-03-20T06:08:29.849Z,15.30
2023-03-20T06:11:05.769Z,15.30
2023-03-20T06:13:42.003Z,15.30
2023-03-20T06:16:15.361Z,15.30
2023-03-20T06:18:48.077Z,15.30
2023-03-20T06:21:20.255Z,15.30
2023-03-20T06:24:14.664Z,15.30
2023-03-20T06:26:49.064Z,15.30
2023-03-20T06:29:22.449Z,15.30
2023-03-20T06:31:58.907Z,15.20
2023-03-20T06:34:35.106Z,15.30
2023-03-20T06:37:14.611Z,15.30
2023-03-20T06:39:47.108Z,15.40
2023-03-20T06:42:26.598Z,15.40
2023-03-20T06:45:18.662Z,15.40
2023-03-20T06:48:23.268Z,15.40
2023-03-20T06:50:56.123Z,15.30
2023-03-20T06:53:33.713Z,15.40
2023-03-20T06:56:11.484Z,15.50
2023-03-20T06:58:49.368Z,15.50
2023-03-20T07:04:39.992Z,15.60
2023-03-20T07:07:14.542Z,15.60
2023-03-20T07:10:09.692Z,15.60
2023-03-20T07:12:43.482Z,15.60
2023-03-20T07:15:19.054Z,15.60
2023-03-20T07:17:52.329Z,15.70
2023-03-20T07:21:04.861Z,15.70
2023-03-20T07:23:41.870Z,15.60
2023-03-20T07:26:16.659Z,15.70
2023-03-20T07:29:10.052Z,15.80
2023-03-20T07:31:45.444Z,16.00
2023-03-20T07:34:28.307Z,16.10
2023-03-20T07:37:00.675Z,16.10
2023-03-20T07:39:55.674Z,16.10
2023-03-20T07:43:19.083Z,16.20
2023-03-20T07:46:14.205Z,16.20
2023-03-20T07:48:47.629Z,16.40
2023-03-20T07:51:19.236Z,16.40
2023-03-20T07:53:53.988Z,16.40
2023-03-20T07:56:27.424Z,16.30
2023-03-20T07:59:00.646Z,16.40
2023-03-20T08:02:00.317Z,16.40
2023-03-20T08:04:35.899Z,16.60
2023-03-20T08:07:34.593Z,16.60
2023-03-20T08:10:10.692Z,16.60
2023-03-20T08:12:53.129Z,16.60
2023-03-20T08:15:27.235Z,16.60
2023-03-20T08:18:00.260Z,16.60
2023-03-20T08:20:34.707Z,16.70
2023-03-20T08:23:11.161Z,16.90
2023-03-20T08:25:45.519Z,16.90
2023-03-20T08:28:19.257Z,16.90
2023-03-20T08:30:54.860Z,16.80
2023-03-20T08:33:28.626Z,16.90
2023-03-20T08:36:09.610Z,16.70
2023-03-20T08:38:52.127Z,16.70
2023-03-20T08:41:36.017Z,16.60
2023-03-20T08:44:09.986Z,16.60
2023-03-20T08:46:46.560Z,16.70
2023-03-20T08:49:20.269Z,16.80
2023-03-20T08:52:14.831Z,16.80
2023-03-20T08:55:09.838Z,16.70
2023-03-20T08:57:42.967Z,16.50
2023-03-20T09:00:17.704Z,16.60
2023-03-20T09:02:56.175Z,16.50
2023-03-20T09:05:28.329Z,16.70
2023-03-20T09:08:01.203Z,16.60
2023-03-20T09:10:39.055Z,16.50
2023-03-20T09:13:26.108Z,16.50
2023-03-20T09:16:02.470Z,16.60
2023-03-20T09:18:35.783Z,16.50
2023-03-20T09:21:20.294Z,16.50
2023-03-20T09:23:52.111Z,16.60
2023-03-20T09:26:23.823Z,16.60
2023-03-20T09:28:55.411Z,16.70
2023-03-20T09:31:30.092Z,16.60
2023-03-20T09:34:02.578Z,16.50
2023-03-20T09:36:37.257Z,16.40
2023-03-20T09:39:10.771Z,16.40
2023-03-20T09:41:55.998Z,16.30
2023-03-20T09:45:17.501Z,16.40
2023-03-20T09:48:13.859Z,16.30
2023-03-20T09:51:15.558Z,16.40
2023-03-20T09:54:17.623Z,16.30
2023-03-20T09:56:51.543Z,16.30
2023-03-20T09:59:25.967Z,16.40
2023-03-20T10:02:27.862Z,16.40
2023-03-20T10:05:01.919Z,16.60
2023-03-20T10:07:36.570Z,16.50
2023-03-20T10:10:10.233Z,16.40
2023-03-20T10:12:46.573Z,16.30
2023-03-20T10:16:04.070Z,16.40
2023-03-20T10:18:40.958Z,16.40
2023-03-20T10:21:30.347Z,16.40
2023-03-20T10:24:17.569Z,16.40
2023-03-20T10:26:55.588Z,16.20
2023-03-20T10:29:43.661Z,16.30
2023-03-20T10:32:53.382Z,16.50
2023-03-20T10:36:09.898Z,16.30
2023-03-20T10:39:08.019Z,16.20
2023-03-20T10:42:03.752Z,16.30
2023-03-20T10:44:41.705Z,16.20
2023-03-20T10:47:20.659Z,15.90
2023-03-20T10:50:08.124Z,16.20
2023-03-20T10:52:45.334Z,16.40
2023-03-20T10:55:52.639Z,16.40
2023-03-20T10:58:32.005Z,16.10
2023-03-20T11:01:08.590Z,16.10
2023-03-20T11:03:43.059Z,16.10
2023-03-20T11:06:23.400Z,16.30
2023-03-20T11:09:39.634Z,16.30
2023-03-20T11:12:29.480Z,16.10
2023-03-20T11:15:07.205Z,16.00
2023-03-20T11:17:39.401Z,15.90
2023-03-20T11:20:18.363Z,16.10
2023-03-20T11:26:08.267Z,16.20
2023-03-20T11:28:44.112Z,16.30
2023-03-20T11:31:25.329Z,16.10
2023-03-20T11:34:20.671Z,16.20
2023-03-20T11:37:10.932Z,16.20
2023-03-20T11:40:06.075Z,16.10
2023-03-20T11:45:48.241Z,16.10
2023-03-20T11:48:25.303Z,16.00
2023-03-20T11:51:34.680Z,16.00
2023-03-20T11:54:10.035Z,15.80
2023-03-20T11:57:03.213Z,16.20
2023-03-20T11:59:45.089Z,16.20
2023-03-20T12:02:25.984Z,16.10
2023-03-20T12:05:04.108Z,16.10
2023-03-20T12:18:04.518Z,15.80
2023-03-20T12:20:48.672Z,16.00
2023-03-20T12:23:34.334Z,15.80
2023-03-20T12:26:39.772Z,16.10
2023-03-20T12:33:30.603Z,15.90
2023-03-20T12:36:04.793Z,15.70
2023-03-20T12:38:50.327Z,16.00
2023-03-20T12:42:11.898Z,15.80
2023-03-20T12:45:03.078Z,15.80
2023-03-20T12:48:18.300Z,15.90
2023-03-20T12:51:08.070Z,16.00
2023-03-20T12:54:00.863Z,16.00
2023-03-20T12:56:42.209Z,15.90
2023-03-20T12:59:33.699Z,15.70
2023-03-20T13:02:31.736Z,16.00
2023-03-20T13:05:32.921Z,16.00
2023-03-20T13:08:33.976Z,16.10
2023-03-20T13:11:19.098Z,16.10
2023-03-20T13:14:18.201Z,15.70
2023-03-20T13:17:29.357Z,15.70
2023-03-20T13:20:22.146Z,15.70
2023-03-20T13:22:57.971Z,15.90
2023-03-20T13:25:51.227Z,15.60
2023-03-20T13:28:56.478Z,15.70
2023-03-20T13:32:01.025Z,15.80
2023-03-20T13:35:00.927Z,15.90
2023-03-20T13:38:00.133Z,15.90
2023-03-20T13:41:03.375Z,15.50
2023-03-20T13:44:11.309Z,15.80
2023-03-20T13:47:24.031Z,15.90
2023-03-20T13:51:08.187Z,15.70
2023-03-20T13:54:16.173Z,15.60
2023-03-20T13:57:36.886Z,15.70
2023-03-20T14:01:14.169Z,15.60
2023-03-20T14:07:00.985Z,15.80
2023-03-20T14:09:42.451Z,15.80
2023-03-20T14:12:56.010Z,15.80
2023-03-20T14:18:24.471Z,15.60
2023-03-20T14:21:18.574Z,15.50
2023-03-20T14:27:03.010Z,15.70
2023-03-20T14:30:03.819Z,15.60
2023-03-20T14:33:04.481Z,15.60
2023-03-20T14:35:53.569Z,15.50
2023-03-20T14:41:44.039Z,15.50
2023-03-20T14:44:44.735Z,15.60
2023-03-20T14:48:03.567Z,15.60
2023-03-20T14:51:04.132Z,15.60
2023-03-20T14:57:55.676Z,15.70
2023-03-20T15:00:32.700Z,15.30
2023-03-20T15:03:36.362Z,15.40
2023-03-20T15:06:12.583Z,15.50
2023-03-20T15:09:15.326Z,15.70
2023-03-20T15:11:56.025Z,15.60
2023-03-20T15:14:34.592Z,15.60
2023-03-20T15:17:09.056Z,15.60
2023-03-20T15:20:23.021Z,15.70
2023-03-20T15:23:01.274Z,15.50
2023-03-20T15:28:39.233Z,15.60
2023-03-20T15:31:40.662Z,15.50
2023-03-20T15:34:25.131Z,15.50
2023-03-20T15:37:10.997Z,15.40
2023-03-20T15:40:49.650Z,15.50
2023-03-20T15:43:29.599Z,15.70
2023-03-20T15:46:21.746Z,15.70
2023-03-20T15:49:14.296Z,15.60
2023-03-20T15:51:46.814Z,15.50
2023-03-20T15:54:21.779Z,15.70
2023-03-20T15:56:57.107Z,15.70
2023-03-20T16:00:16.166Z,15.70
2023-03-20T16:02:53.174Z,15.70
2023-03-20T16:06:06.592Z,15.70
2023-03-20T16:08:40.994Z,15.70
2023-03-20T16:11:20.901Z,15.70
2023-03-20T16:14:28.555Z,15.30
2023-03-20T16:17:04.969Z,15.40
2023-03-20T16:20:25.223Z,15.70
2023-03-20T16:23:02.574Z,15.70
2023-03-20T16:25:38.359Z,15.70
2023-03-20T16:31:33.861Z,15.60
2023-03-20T16:34:11.359Z,15.70
2023-03-20T16:37:05.265Z,15.60
2023-03-20T16:39:38.468Z,15.80
2023-03-20T16:42:34.809Z,15.80
2023-03-20T16:45:33.260Z,15.60
2023-03-20T16:48:15.508Z,15.50
2023-03-20T16:50:54.798Z,15.70
2023-03-20T16:53:30.433Z,15.70
2023-03-20T16:56:06.635Z,15.60
2023-03-20T16:58:43.236Z,15.40
2023-03-20T17:01:24.913Z,15.70
2023-03-20T17:04:16.446Z,15.80
2023-03-20T17:06:55.022Z,15.90
2023-03-20T17:10:17.126Z,15.80
2023-03-20T17:12:51.119Z,15.70
2023-03-20T17:15:24.866Z,15.70
2023-03-20T17:18:17.250Z,15.60
2023-03-20T17:20:49.451Z,15.60
2023-03-20T17:23:25.895Z,15.60
2023-03-20T17:25:57.120Z,15.70
2023-03-20T17:28:34.814Z,15.70
2023-03-20T17:31:07.849Z,15.60
2023-03-20T17:33:40.408Z,15.80
2023-03-20T17:36:24.107Z,15.60
2023-03-20T17:38:56.996Z,15.70
2023-03-20T17:41:30.254Z,15.80
2023-03-20T17:44:03.089Z,15.80
2023-03-20T17:46:49.792Z,15.60
2023-03-20T17:49:28.947Z,15.80
2023-03-20T17:52:04.175Z,15.70
2023-03-20T17:54:36.093Z,15.70
2023-03-20T17:57:14.540Z,15.40
2023-03-20T18:00:06.194Z,15.70
2023-03-20T18:02:38.576Z,15.70
2023-03-20T18:05:11.493Z,15.80
2023-03-20T18:07:43.333Z,15.60
2023-03-20T18:10:27.785Z,15.40
2023-03-20T18:13:00.498Z,15.70
2023-03-20T18:15:33.257Z,15.90
2023-03-20T18:18:07.842Z,15.80
2023-03-20T18:20:45.674Z,15.60
2023-03-20T18:23:21.873Z,15.60
2023-03-20T18:25:53.473Z,15.70
2023-03-20T18:28:25.955Z,15.80
2023-03-20T18:31:00.454Z,15.60
2023-03-20T18:33:32.599Z,15.60
2023-03-20T18:36:05.475Z,15.50
2023-03-20T18:38:40.743Z,15.50
2023-03-20T18:41:13.826Z,15.80
2023-03-20T18:43:57.516Z,15.90
2023-03-20T18:46:29.929Z,15.80
2023-03-20T18:49:06.515Z,15.70
2023-03-20T18:51:39.281Z,15.70
2023-03-20T18:54:11.568Z,15.60
2023-03-20T18:56:44.473Z,15.70
2023-03-20T18:59:16.035Z,15.80
2023-03-20T19:01:50.451Z,15.50
2023-03-20T19:04:24.938Z,15.70
2023-03-20T19:06:57.053Z,15.70
2023-03-20T19:09:29.527Z,15.50
2023-03-20T19:12:00.974Z,15.30
2023-03-20T19:14:32.987Z,15.70
2023-03-20T19:17:05.710Z,15.70
2023-03-20T19:19:37.564Z,15.80
2023-03-20T19:22:22.481Z,15.70
2023-03-20T19:25:01.759Z,15.50
2023-03-20T19:27:33.904Z,15.70
2023-03-20T19:30:06.130Z,15.80
2023-03-20T19:32:38.610Z,15.70
2023-03-20T19:38:03.780Z,15.70
2023-03-20T19:40:43.073Z,15.30
2023-03-20T19:43:17.112Z,15.60
2023-03-20T19:45:48.917Z,15.70
2023-03-20T19:48:23.562Z,15.80
2023-03-20T19:50:55.949Z,15.80
2023-03-20T19:53:31.145Z,15.60
2023-03-20T19:56:02.896Z,15.70
2023-03-20T19:58:35.172Z,15.60
2023-03-20T20:01:14.833Z,15.50
2023-03-20T20:03:46.820Z,15.50
2023-03-20T20:06:21.624Z,15.60
2023-03-20T20:08:53.816Z,15.70
2023-03-20T20:11:28.640Z,15.60
2023-03-20T20:14:07.274Z,15.60
2023-03-20T20:16:45.300Z,15.70
2023-03-20T20:19:17.464Z,15.60
2023-03-20T20:22:19.518Z,15.60
2023-03-20T20:24:43.096Z,15.70
2023-03-20T20:27:17.125Z,15.60
2023-03-20T20:29:52.350Z,15.60
2023-03-20T20:32:27.384Z,15.80
2023-03-20T20:35:39.838Z,15.80
2023-03-20T20:38:37.045Z,15.80
2023-03-20T20:40:46.896Z,15.30
2023-03-20T20:43:47.327Z,15.70
2023-03-20T20:46:09.769Z,15.70
2023-03-20T20:48:43.883Z,15.70
2023-03-20T20:51:15.684Z,15.60
2023-03-20T20:53:47.718Z,15.70
2023-03-20T20:56:19.307Z,15.70
2023-03-20T20:58:51.583Z,15.60
2023-03-20T21:01:23.168Z,15.90
2023-03-20T21:03:57.312Z,16.00
2023-03-20T21:06:50.857Z,16.00
2023-03-20T21:09:21.196Z,15.90
2023-03-20T21:11:52.330Z,15.60
2023-03-20T21:14:24.528Z,15.40
2023-03-20T21:17:02.517Z,15.50
2023-03-20T21:19:38.792Z,15.90
2023-03-20T21:22:12.911Z,15.80
2023-03-20T21:24:45.573Z,15.70
2023-03-20T21:27:17.951Z,15.60
2023-03-20T21:29:51.673Z,15.80
2023-03-20T21:32:24.587Z,15.90
2023-03-20T21:34:56.686Z,15.70
2023-03-20T21:38:29.950Z,15.70
2023-03-20T21:40:23.590Z,15.80
2023-03-20T21:42:54.976Z,16.00
2023-03-20T21:46:15.333Z,15.50
2023-03-20T21:48:58.349Z,15.90
2023-03-20T21:55:00.550Z,16.00
2023-03-20T22:00:44.053Z,15.90
2023-03-20T22:02:48.950Z,15.50
2023-03-20T22:05:59.204Z,15.70
2023-03-20T22:11:52.337Z,16.10
2023-03-20T22:14:49.236Z,16.00
2023-03-20T22:20:29.808Z,15.80
2023-03-20T22:23:32.345Z,15.90
2023-03-20T22:29:14.777Z,15.80
2023-03-20T22:32:02.305Z,15.70
2023-03-20T22:40:50.361Z,16.20
2023-03-20T22:43:48.496Z,16.20
2023-03-20T22:45:42.142Z,15.80
2023-03-20T22:48:18.942Z,15.70
2023-03-20T22:50:51.618Z,16.10
2023-03-20T22:53:23.972Z,15.90
2023-03-20T22:55:55.502Z,15.80
2023-03-20T22:58:27.940Z,16.10
2023-03-20T23:00:59.946Z,16.00
2023-03-20T23:03:41.580Z,16.00
2023-03-20T23:06:26.368Z,16.10
2023-03-20T23:09:03.295Z,16.20
2023-03-20T23:11:43.717Z,16.10
2023-03-20T23:14:21.060Z,16.00
2023-03-20T23:16:53.642Z,16.20
2023-03-20T23:19:26.552Z,15.90
2023-03-20T23:21:59.039Z,15.90
2023-03-20T23:24:30.795Z,16.20
2023-03-20T23:27:02.518Z,15.80
2023-03-20T23:29:33.833Z,15.80
2023-03-20T23:32:06.721Z,16.00
2023-03-20T23:34:39.504Z,16.10
2023-03-20T23:37:11.345Z,16.40
2023-03-20T23:39:44.297Z,16.60
2023-03-20T23:42:29.673Z,16.60
2023-03-20T23:45:13.287Z,16.50
2023-03-20T23:47:51.558Z,16.40
2023-03-20T23:50:31.843Z,16.30
2023-03-20T23:53:19.552Z,16.70
2023-03-20T23:55:54.866Z,16.70
2023-03-20T23:58:28.956Z,16.40
